Time;durP1;ratioP1;P1;durP2;ratioP2;P2;SDS_P1;SDS_P2;PMS_P1;PMS_P2;Temp;Humidity;BMP_temperature;BMP_pressure;BME280_temperature;BME280_humidity;BME280_pressure;Samples;Min_cycle;Max_cycle;Signal;HPM_P1;HPM_P2
2022/07/11 00:00:16;;;;;;;3.90;2.33;;;-19.60;99.90;;;;;;5066967;28;20177;-68
2022/07/11 00:02:42;;;;;;;3.67;2.17;;;-19.50;99.90;;;;;;5066480;28;20180;-67
2022/07/11 00:05:10;;;;;;;4.40;2.40;;;-21.40;99.90;;;;;;5065396;28;20585;-68
2022/07/11 00:07:36;;;;;;;2.37;1.60;;;-22.20;99.90;;;;;;5065696;28;20191;-68
2022/07/11 00:10:03;;;;;;;2.13;1.93;;;-24.80;99.90;;;;;;5066516;28;20453;-68
2022/07/11 00:12:29;;;;;;;2.43;1.77;;;-21.50;99.90;;;;;;5066546;28;20180;-67
2022/07/11 00:14:56;;;;;;;1.97;1.87;;;-25.80;99.90;;;;;;5065181;28;20497;-67
2022/07/11 00:17:23;;;;;;;3.87;2.13;;;-27.70;99.90;;;;;;5066245;28;20172;-67
2022/07/11 00:19:49;;;;;;;1.90;1.80;;;-24.40;99.90;;;;;;5066777;28;20163;-67
2022/07/11 00:22:15;;;;;;;2.20;2.10;;;-26.10;99.90;;;;;;5064958;28;20203;-68
2022/07/11 00:24:41;;;;;;;3.13;2.07;;;-26.10;99.90;;;;;;5066386;28;20195;-70
2022/07/11 00:27:07;;;;;;;4.37;2.07;;;-28.80;99.90;;;;;;5065833;28;20226;-71
2022/07/11 00:29:32;;;;;;;2.03;1.93;;;-21.70;99.90;;;;;;5064853;28;20302;-68
2022/07/11 00:31:59;;;;;;;1.90;1.70;;;-25.80;99.90;;;;;;5066536;28;20175;-68
2022/07/11 00:34:25;;;;;;;3.33;1.77;;;-25.30;99.90;;;;;;5065071;28;20229;-68
2022/07/11 00:36:51;;;;;;;2.10;2.00;;;-21.60;99.90;;;;;;5064803;28;20171;-67
2022/07/11 00:39:17;;;;;;;2.20;1.77;;;-21.90;99.90;;;;;;5063688;28;20200;-68
2022/07/11 00:41:43;;;;;;;2.07;1.97;;;-23.50;99.90;;;;;;5065494;28;20177;-68
2022/07/11 00:44:09;;;;;;;2.73;2.50;;;-22.10;99.90;;;;;;5066362;28;20171;-70
2022/07/11 00:46:35;;;;;;;4.53;1.80;;;-20.20;99.90;;;;;;5064461;28;20220;-70
2022/07/11 00:49:01;;;;;;;5.30;2.20;;;-18.40;99.90;;;;;;5065113;28;20199;-69
2022/07/11 00:51:27;;;;;;;3.50;2.23;;;-19.30;99.90;;;;;;5065877;28;20615;-67
2022/07/11 00:53:56;;;;;;;2.80;2.57;;;-19.60;99.90;;;;;;5065941;28;20266;-73
2022/07/11 00:56:24;;;;;;;1.67;1.57;;;-22.00;99.90;;;;;;5064661;28;20168;-73
2022/07/11 00:58:51;;;;;;;3.17;1.93;;;-18.00;99.90;;;;;;5064551;28;20178;-66
2022/07/11 01:01:18;;;;;;;4.77;2.13;;;-20.10;99.90;;;;;;5066368;28;20240;-66
2022/07/11 01:03:45;;;;;;;3.13;2.00;;;-19.20;99.90;;;;;;5065043;28;20209;-66
2022/07/11 01:06:12;;;;;;;2.63;2.43;;;-23.10;99.90;;;;;;5064448;28;20230;-67
2022/07/11 01:08:39;;;;;;;3.93;1.87;;;-21.60;99.90;;;;;;5066203;28;20175;-67
2022/07/11 01:11:12;;;;;;;3.30;2.27;;;-24.00;99.90;;;;;;5064919;28;20263;-69
2022/07/11 01:13:39;;;;;;;2.83;2.60;;;-24.30;99.90;;;;;;5063961;28;20606;-67
2022/07/11 01:16:22;;;;;;;6.23;2.70;;;-24.10;99.90;;;;;;5064331;28;20531;-67
2022/07/11 01:18:52;;;;;;;6.47;2.43;;;-20.50;99.90;;;;;;5065192;28;20179;-67
2022/07/11 01:21:22;;;;;;;2.00;1.90;;;-23.10;99.90;;;;;;5063890;28;20262;-67
2022/07/11 01:23:49;;;;;;;1.53;1.43;;;-21.50;99.90;;;;;;5064664;28;20180;-67
2022/07/11 01:26:16;;;;;;;3.17;2.30;;;-19.40;99.90;;;;;;5066057;28;20226;-67
2022/07/11 01:28:42;;;;;;;4.10;2.67;;;-21.30;99.90;;;;;;5064100;28;20481;-67
2022/07/11 01:31:08;;;;;;;3.63;2.17;;;-18.20;99.90;;;;;;5064954;28;20225;-68
2022/07/11 01:33:34;;;;;;;2.60;2.03;;;-21.10;99.90;;;;;;5065815;28;20213;-68
2022/07/11 01:36:01;;;;;;;2.20;1.90;;;-19.80;99.90;;;;;;5063784;28;20267;-68
2022/07/11 01:38:27;;;;;;;3.83;2.10;;;-19.60;99.90;;;;;;5064812;28;20217;-68
2022/07/11 01:40:54;;;;;;;2.37;1.97;;;-20.90;99.90;;;;;;5065558;28;20643;-68
2022/07/11 01:43:19;;;;;;;2.70;1.90;;;-30.20;99.90;;;;;;5063667;28;20184;-68
2022/07/11 01:45:45;;;;;;;5.50;3.37;;;-25.10;99.90;;;;;;5065310;28;20218;-66
2022/07/11 01:48:11;;;;;;;3.50;2.40;;;-25.60;99.90;;;;;;5065142;28;20202;-67
2022/07/11 01:50:37;;;;;;;2.90;2.40;;;-18.80;99.90;;;;;;5063885;28;20469;-68
2022/07/11 01:53:03;;;;;;;3.43;2.37;;;-18.60;99.90;;;;;;5067775;28;20182;-67
2022/07/11 01:55:28;;;;;;;2.17;2.07;;;-18.40;99.90;;;;;;5068891;28;20586;-68
2022/07/11 01:57:54;;;;;;;8.77;2.70;;;-19.20;99.90;;;;;;5069491;28;20197;-67
2022/07/11 02:00:20;;;;;;;2.70;1.97;;;-22.30;99.90;;;;;;5067335;28;20237;-67
2022/07/11 02:02:46;;;;;;;2.57;2.37;;;-23.50;99.90;;;;;;5069031;28;20183;-66
2022/07/11 02:05:12;;;;;;;2.33;2.00;;;-22.90;99.90;;;;;;5068536;28;20236;-67
2022/07/11 02:10:22;;;;;;;2.10;2.00;;;-25.70;99.90;;;;;;5069579;28;20218;-67
2022/07/11 02:12:47;;;;;;;3.30;2.00;;;-25.80;99.90;;;;;;5067959;28;20591;-67
2022/07/11 02:15:13;;;;;;;2.63;2.03;;;-20.70;99.90;;;;;;5067934;28;20191;-67
2022/07/11 02:17:39;;;;;;;3.43;3.00;;;-23.70;99.90;;;;;;5069332;28;20228;-67
2022/07/11 02:20:05;;;;;;;3.03;2.70;;;-19.80;99.90;;;;;;5067375;28;20179;-67
2022/07/11 02:22:34;;;;;;;3.43;2.30;;;-21.00;99.90;;;;;;5067938;28;20225;-67
2022/07/11 02:24:59;;;;;;;4.50;1.80;;;-18.30;99.90;;;;;;5069083;28;20190;-67
2022/07/11 02:27:25;;;;;;;2.50;2.30;;;-22.40;99.90;;;;;;5067404;28;20172;-66
2022/07/11 02:29:51;;;;;;;2.57;2.37;;;-16.40;99.90;;;;;;5067872;28;20164;-67
2022/07/11 02:32:17;;;;;;;2.23;2.13;;;-20.30;99.90;;;;;;5068761;28;20595;-67
2022/07/11 02:34:43;;;;;;;3.27;2.27;;;-17.40;99.90;;;;;;5066948;28;20168;-67
2022/07/11 02:37:08;;;;;;;2.73;2.53;;;-20.80;99.90;;;;;;5068028;28;20171;-69
2022/07/11 02:39:34;;;;;;;3.90;2.60;;;-18.40;99.90;;;;;;5068273;28;20203;-67
2022/07/11 02:42:00;;;;;;;2.83;2.57;;;-21.00;99.90;;;;;;5066819;28;20187;-67
2022/07/11 02:44:26;;;;;;;5.43;2.47;;;-16.00;99.90;;;;;;5099279;28;20186;-68
2022/07/11 02:46:52;;;;;;;2.67;2.10;;;-21.30;99.90;;;;;;5066913;28;20290;-67
2022/07/11 02:49:17;;;;;;;2.53;2.33;;;-18.50;99.90;;;;;;5068404;28;20255;-70
2022/07/11 02:51:43;;;;;;;2.57;2.37;;;-23.80;99.90;;;;;;5066906;28;20164;-68
2022/07/11 02:54:09;;;;;;;2.57;2.47;;;-22.50;99.90;;;;;;5067080;28;20176;-67
2022/07/11 02:56:34;;;;;;;2.60;2.40;;;-21.90;99.90;;;;;;5067445;28;20182;-68
2022/07/11 02:59:00;;;;;;;13.60;3.20;;;-22.20;99.90;;;;;;5068468;28;20217;-68
2022/07/11 03:01:27;;;;;;;2.80;2.60;;;-26.90;99.90;;;;;;5066206;28;20172;-69
2022/07/11 03:03:52;;;;;;;3.10;2.73;;;-25.00;99.90;;;;;;5066530;28;20297;-68
2022/07/11 03:06:18;;;;;;;2.60;2.40;;;-27.20;99.90;;;;;;5067477;28;20690;-67
2022/07/11 03:08:44;;;;;;;2.17;2.07;;;-23.00;99.90;;;;;;5066376;28;20186;-67
2022/07/11 03:11:09;;;;;;;2.37;2.13;;;-23.70;99.90;;;;;;5067859;28;20164;-69
2022/07/11 03:13:35;;;;;;;2.50;2.30;;;-23.10;99.90;;;;;;5067503;28;20176;-66
2022/07/11 03:16:01;;;;;;;2.60;2.47;;;-23.70;99.90;;;;;;5065179;28;20171;-67
2022/07/11 03:18:28;;;;;;;2.93;2.70;;;-23.60;99.90;;;;;;5068277;28;20178;-66
2022/07/11 03:20:53;;;;;;;3.93;2.77;;;-19.20;99.90;;;;;;5066594;28;20689;-66
2022/07/11 03:23:19;;;;;;;2.90;2.70;;;-20.50;99.90;;;;;;5065559;28;20175;-67
2022/07/11 03:25:45;;;;;;;3.03;2.77;;;-18.60;99.90;;;;;;5068053;28;20198;-67
2022/07/11 03:28:12;;;;;;;3.50;2.90;;;-16.00;99.90;;;;;;5066413;28;20202;-68
2022/07/11 03:30:37;;;;;;;3.63;2.33;;;-14.50;99.90;;;;;;5066581;28;20699;-68
2022/07/11 03:33:03;;;;;;;3.07;2.67;;;-16.50;99.90;;;;;;5067995;28;20179;-67
2022/07/11 03:35:41;;;;;;;5.27;2.90;;;-15.90;99.90;;;;;;5065657;28;20184;-68
2022/07/11 03:38:11;;;;;;;3.40;3.10;;;-20.20;99.90;;;;;;5065498;28;20188;-66
2022/07/11 03:40:37;;;;;;;3.40;3.07;;;-23.80;99.90;;;;;;5066687;28;20578;-67
2022/07/11 03:43:03;;;;;;;3.10;2.90;;;-19.50;99.90;;;;;;5067518;28;20168;-66
2022/07/11 03:45:29;;;;;;;2.93;2.70;;;-19.80;99.90;;;;;;5065560;28;20192;-67
2022/07/11 03:47:54;;;;;;;4.73;3.17;;;-19.80;99.90;;;;;;5066718;28;20213;-68
2022/07/11 03:50:20;;;;;;;2.17;2.07;;;-20.90;99.90;;;;;;5066760;28;20179;-66
2022/07/11 03:52:46;;;;;;;3.47;3.23;;;-20.40;99.90;;;;;;5066316;28;20182;-68
2022/07/11 03:55:12;;;;;;;3.70;2.77;;;-17.40;99.90;;;;;;5065787;28;20255;-67
2022/07/11 03:57:38;;;;;;;3.00;2.77;;;-19.80;99.90;;;;;;5066332;28;20160;-67
2022/07/11 04:00:07;;;;;;;3.33;2.53;;;-18.30;99.90;;;;;;5067320;28;20168;-69
2022/07/11 04:02:33;;;;;;;4.00;3.70;;;-25.00;99.90;;;;;;5065294;28;20175;-67
2022/07/11 04:04:58;;;;;;;4.20;3.13;;;-23.20;99.90;;;;;;5066055;28;20167;-67
2022/07/11 04:07:24;;;;;;;3.17;2.97;;;-22.70;99.90;;;;;;5065873;28;20210;-69
2022/07/11 04:09:50;;;;;;;3.57;3.27;;;-25.80;99.90;;;;;;5065133;28;20179;-67
2022/07/11 04:12:18;;;;;;;3.10;2.80;;;-20.90;99.90;;;;;;5065424;28;20225;-68
2022/07/11 04:14:44;;;;;;;3.23;2.90;;;-22.70;99.90;;;;;;5066496;28;20572;-67
2022/07/11 04:17:10;;;;;;;3.30;3.10;;;-19.60;99.90;;;;;;5064570;28;20179;-67
2022/07/11 04:19:35;;;;;;;3.10;2.80;;;-18.30;99.90;;;;;;5065939;28;20171;-67
2022/07/11 04:22:04;;;;;;;5.20;2.87;;;-20.30;99.90;;;;;;5066114;28;20207;-67
2022/07/11 04:24:30;;;;;;;4.10;3.80;;;-18.20;99.90;;;;;;5064973;28;20789;-68
2022/07/11 04:26:56;;;;;;;3.13;2.93;;;-16.70;99.90;;;;;;5066420;28;20278;-68
2022/07/11 04:29:23;;;;;;;4.57;2.93;;;-22.40;99.90;;;;;;5066132;28;20167;-68
2022/07/11 04:31:52;;;;;;;4.63;4.13;;;-17.20;99.90;;;;;;5064226;28;20168;-67
2022/07/11 04:34:18;;;;;;;4.37;3.97;;;-18.00;99.90;;;;;;5066071;28;20228;-67
2022/07/11 04:36:45;;;;;;;2.80;2.67;;;-18.10;99.90;;;;;;5066250;28;20171;-68
2022/07/11 04:39:10;;;;;;;8.83;3.70;;;-14.80;99.90;;;;;;5064414;28;20685;-66
2022/07/11 04:41:36;;;;;;;5.73;5.30;;;-16.20;99.90;;;;;;5066137;28;20171;-68
2022/07/11 04:44:02;;;;;;;3.87;3.57;;;-16.10;99.90;;;;;;5065781;28;20175;-67
2022/07/11 04:46:29;;;;;;;6.17;4.07;;;-16.20;99.90;;;;;;5064305;28;20199;-67
2022/07/11 04:48:55;;;;;;;4.37;3.53;;;-15.60;99.90;;;;;;5065102;28;20167;-67
2022/07/11 04:51:21;;;;;;;4.47;4.13;;;-15.10;99.90;;;;;;5065534;28;20200;-67
2022/07/11 04:53:47;;;;;;;3.77;3.00;;;-18.10;99.90;;;;;;5066504;28;20206;-68
2022/07/11 04:56:13;;;;;;;4.37;4.07;;;-17.30;99.90;;;;;;5064517;28;20304;-68
2022/07/11 04:58:40;;;;;;;4.07;3.70;;;-20.80;99.90;;;;;;5065807;28;20524;-66
2022/07/11 05:01:06;;;;;;;5.03;4.53;;;-21.30;99.90;;;;;;5065644;28;20172;-68
2022/07/11 05:03:34;;;;;;;6.70;5.00;;;-17.20;99.90;;;;;;5063077;28;20601;-67
2022/07/11 05:06:00;;;;;;;4.10;3.80;;;-19.90;99.90;;;;;;5065514;28;20222;-68
2022/07/11 05:08:26;;;;;;;4.07;3.87;;;-25.50;99.90;;;;;;5065751;28;20207;-68
2022/07/11 05:10:52;;;;;;;6.00;5.50;;;-26.00;99.90;;;;;;5063135;28;20678;-67
2022/07/11 05:13:18;;;;;;;5.73;5.03;;;-24.40;99.90;;;;;;5064629;28;20195;-67
2022/07/11 05:15:44;;;;;;;5.53;4.67;;;-25.00;99.90;;;;;;5065202;28;20176;-67
2022/07/11 05:18:10;;;;;;;8.63;5.17;;;-28.10;99.90;;;;;;5064046;28;20176;-67
2022/07/11 05:20:37;;;;;;;9.43;5.20;;;-25.00;99.90;;;;;;5066241;28;20175;-68
2022/07/11 05:23:03;;;;;;;5.87;5.37;;;-21.50;99.90;;;;;;5064869;28;20247;-66
2022/07/11 05:25:28;;;;;;;6.30;5.70;;;-30.80;99.90;;;;;;5064712;28;20494;-68
2022/07/11 05:27:54;;;;;;;11.47;7.63;;;-24.10;99.90;;;;;;5067886;28;20242;-67
2022/07/11 05:30:20;;;;;;;13.17;7.40;;;-20.00;99.90;;;;;;5067445;28;20192;-67
2022/07/11 05:32:46;;;;;;;10.67;8.70;;;-19.80;99.90;;;;;;5068941;28;20163;-66
2022/07/11 05:35:12;;;;;;;17.10;10.43;;;-19.00;99.90;;;;;;5069093;28;20186;-67
2022/07/11 05:37:38;;;;;;;12.77;10.60;;;-24.80;99.90;;;;;;5067078;28;20215;-66
2022/07/11 05:40:04;;;;;;;11.63;10.53;;;-23.10;99.90;;;;;;5069101;28;20195;-67
2022/07/11 05:42:34;;;;;;;14.97;10.93;;;-22.60;99.90;;;;;;5069671;28;20454;-68
2022/07/11 05:45:00;;;;;;;12.70;11.50;;;-33.10;99.90;;;;;;5068009;28;20164;-68
2022/07/11 05:47:26;;;;;;;12.03;10.70;;;-27.80;99.90;;;;;;5068813;28;20270;-70
2022/07/11 05:49:52;;;;;;;11.80;10.40;;;-32.50;99.90;;;;;;5069570;28;20160;-69
2022/07/11 05:52:17;;;;;;;13.97;11.27;;;-34.30;99.90;;;;;;5066868;28;20175;-69
2022/07/11 05:54:43;;;;;;;14.03;12.63;;;-33.60;99.90;;;;;;5068419;28;20179;-70
2022/07/11 05:57:09;;;;;;;15.97;10.77;;;-31.40;99.90;;;;;;5068399;28;20182;-69
2022/07/11 05:59:35;;;;;;;13.10;11.70;;;-27.40;99.90;;;;;;5069191;28;20194;-70
2022/07/11 06:02:02;;;;;;;13.30;10.93;;;-26.60;99.90;;;;;;5067892;28;20191;-69
2022/07/11 06:04:28;;;;;;;16.43;11.87;;;-24.60;99.90;;;;;;5068179;28;20202;-69
2022/07/11 06:06:54;;;;;;;11.97;10.77;;;-27.70;99.90;;;;;;5069507;28;20279;-69
2022/07/11 06:09:19;;;;;;;12.93;11.53;;;-23.10;99.90;;;;;;5067458;28;20179;-68
2022/07/11 06:11:45;;;;;;;18.50;13.33;;;-27.40;99.90;;;;;;5068666;28;20170;-69
2022/07/11 06:14:11;;;;;;;14.77;11.60;;;-30.60;99.90;;;;;;5068437;28;20179;-70
2022/07/11 06:16:37;;;;;;;12.73;10.47;;;-40.00;99.90;;;;;;5067395;28;20176;-71
2022/07/11 06:19:03;;;;;;;14.40;10.90;;;-40.00;99.90;;;;;;5068715;28;20186;-72
2022/07/11 06:21:29;;;;;;;10.40;8.03;;;-40.00;99.90;;;;;;5068396;28;20176;-71
2022/07/11 06:23:55;;;;;;;8.83;7.30;;;-37.40;99.90;;;;;;5067098;28;20180;-77
2022/07/11 06:26:21;;;;;;;13.23;7.53;;;-34.90;99.90;;;;;;5067305;28;20607;-74
2022/07/11 06:28:47;;;;;;;6.90;6.17;;;-40.00;99.90;;;;;;5067951;28;20179;-71
2022/07/11 06:31:13;;;;;;;12.47;6.87;;;-34.70;99.90;;;;;;5068887;28;20172;-71
2022/07/11 06:33:39;;;;;;;11.27;6.07;;;-33.30;99.90;;;;;;5067071;28;20226;-72
2022/07/11 06:36:06;;;;;;;6.57;5.97;;;-28.80;99.90;;;;;;5068109;28;20167;-75
2022/07/11 06:38:32;;;;;;;9.57;6.13;;;-37.90;99.90;;;;;;5066846;28;20614;-72
2022/07/11 06:40:58;;;;;;;7.67;5.90;;;-29.60;99.90;;;;;;5063990;28;20187;-71
2022/07/11 06:43:24;;;;;;;10.73;6.87;;;-25.60;99.90;;;;;;5066128;28;20171;-69
2022/07/11 06:45:51;;;;;;;6.90;6.00;;;-29.80;99.90;;;;;;5067042;28;20195;-68
2022/07/11 06:48:17;;;;;;;8.43;6.90;;;-31.20;99.90;;;;;;5067439;28;20203;-69
2022/07/11 06:50:43;;;;;;;7.33;6.57;;;-33.20;99.90;;;;;;5066060;28;20179;-70
2022/07/11 06:53:09;;;;;;;14.17;6.17;;;-36.80;99.90;;;;;;5069520;28;20174;-70
2022/07/11 06:55:35;;;;;;;6.67;5.90;;;-36.60;99.90;;;;;;5065336;28;20744;-69
2022/07/11 06:58:01;;;;;;;12.73;5.77;;;-33.30;99.90;;;;;;5069257;28;20181;-69
2022/07/11 07:00:31;;;;;;;14.97;8.17;;;-40.00;99.90;;;;;;5068262;28;20172;-69
2022/07/11 07:02:59;;;;;;;9.10;5.73;;;-40.00;99.90;;;;;;5069136;28;20183;-68
2022/07/11 07:05:26;;;;;;;10.00;6.33;;;-39.90;99.90;;;;;;5069261;28;20176;-73
2022/07/11 07:07:55;;;;;;;5.90;5.37;;;-40.00;99.90;;;;;;5067714;28;20172;-74
2022/07/11 07:10:27;;;;;;;14.63;6.60;;;-40.00;99.90;;;;;;5068823;28;20211;-77
2022/07/11 07:12:55;;;;;;;6.30;5.03;;;-40.00;99.90;;;;;;5065985;28;20176;-76
2022/07/11 07:15:21;;;;;;;10.57;5.17;;;-40.00;99.90;;;;;;5068427;28;20217;-72
2022/07/11 07:17:50;;;;;;;8.60;5.17;;;-40.00;99.90;;;;;;5067229;28;20218;-72
2022/07/11 07:20:16;;;;;;;8.33;5.30;;;-40.00;99.90;;;;;;5066703;28;20179;-72
2022/07/11 07:22:42;;;;;;;7.97;5.93;;;-40.00;99.90;;;;;;5065907;28;20169;-73
2022/07/11 07:25:11;;;;;;;6.40;5.80;;;-40.00;99.90;;;;;;5067842;28;20199;-74
2022/07/11 07:27:43;;;;;;;10.13;5.97;;;-40.00;99.90;;;;;;5067909;28;20187;-71
2022/07/11 07:30:10;;;;;;;6.87;6.17;;;-40.00;99.90;;;;;;5066455;28;20567;-69
2022/07/11 07:32:35;;;;;;;6.80;5.67;;;-40.00;99.90;;;;;;5066038;28;20250;-74
2022/07/11 07:35:02;;;;;;;7.90;6.10;;;-40.00;99.90;;;;;;5068118;28;20297;-74
2022/07/11 07:37:28;;;;;;;7.00;5.70;;;-40.00;99.90;;;;;;5066046;28;20195;-72
2022/07/11 07:39:54;;;;;;;7.27;6.43;;;-40.00;99.90;;;;;;5068122;28;20180;-69
2022/07/11 07:42:19;;;;;;;8.27;6.63;;;-40.00;99.90;;;;;;5066528;28;20183;-68
2022/07/11 07:44:45;;;;;;;7.07;5.33;;;-40.00;99.90;;;;;;5065394;28;20206;-70
2022/07/11 07:47:11;;;;;;;7.67;6.93;;;-40.00;99.90;;;;;;5066605;28;20653;-69
2022/07/11 07:49:36;;;;;;;11.67;6.73;;;-40.00;99.90;;;;;;5066429;28;20168;-67
2022/07/11 07:52:03;;;;;;;7.20;6.60;;;-40.00;99.90;;;;;;5065994;28;20609;-67
2022/07/11 07:54:28;;;;;;;6.60;5.83;;;-40.00;99.90;;;;;;5066343;28;20203;-68
2022/07/11 07:56:54;;;;;;;6.87;5.77;;;-40.00;99.90;;;;;;5067006;28;20195;-67
2022/07/11 07:59:20;;;;;;;7.07;6.37;;;-40.00;99.90;;;;;;5067166;28;20177;-67
2022/07/11 08:01:47;;;;;;;7.43;5.57;;;-40.00;99.90;;;;;;5063706;28;20175;-67
2022/07/11 08:04:13;;;;;;;8.47;5.97;;;-40.00;99.90;;;;;;5066534;28;20175;-66
2022/07/11 08:06:40;;;;;;;5.27;4.77;;;-40.00;99.90;;;;;;5066398;28;20684;-69
2022/07/11 08:09:06;;;;;;;10.93;5.50;;;-40.00;99.90;;;;;;5065188;28;20203;-68
2022/07/11 08:11:33;;;;;;;4.67;3.97;;;-40.00;99.90;;;;;;5068973;28;20610;-68
2022/07/11 08:13:59;;;;;;;6.57;4.33;;;-40.00;99.90;;;;;;5065910;28;20170;-68
2022/07/11 08:16:25;;;;;;;5.67;4.50;;;-40.00;99.90;;;;;;5069129;28;20229;-69
2022/07/11 08:18:53;;;;;;;4.87;4.47;;;-40.00;99.90;;;;;;5067819;28;20175;-68
2022/07/11 08:21:18;;;;;;;5.93;3.60;;;-40.00;99.90;;;;;;5064739;28;20258;-68
2022/07/11 08:23:44;;;;;;;4.10;3.80;;;-40.00;99.90;;;;;;5068241;28;20255;-67
2022/07/11 08:26:10;;;;;;;3.53;2.90;;;-40.00;99.90;;;;;;5066359;28;20194;-69
2022/07/11 08:28:36;;;;;;;5.87;3.30;;;-40.00;99.90;;;;;;5066522;28;20512;-68
2022/07/11 08:31:02;;;;;;;2.37;2.17;;;-40.00;99.90;;;;;;5065032;28;20175;-70
2022/07/11 08:33:27;;;;;;;5.37;2.30;;;-40.00;99.90;;;;;;5066882;28;20176;-68
2022/07/11 08:35:53;;;;;;;3.63;3.27;;;-40.00;99.90;;;;;;5064198;28;20262;-67
2022/07/11 08:38:19;;;;;;;3.73;2.80;;;-40.00;99.90;;;;;;5065359;28;20207;-68
2022/07/11 08:40:45;;;;;;;7.07;3.57;;;-40.00;99.90;;;;;;5066665;28;20211;-67
2022/07/11 08:43:15;;;;;;;4.83;2.63;;;-40.00;99.90;;;;;;5064266;28;20257;-68
2022/07/11 08:45:41;;;;;;;8.97;4.40;;;-40.00;99.90;;;;;;5064923;28;20194;-71
2022/07/11 08:48:11;;;;;;;4.60;3.20;;;-40.00;99.90;;;;;;5065735;28;20298;-68
2022/07/11 08:50:37;;;;;;;4.43;3.80;;;-40.00;99.90;;;;;;5064539;28;20168;-69
2022/07/11 08:53:04;;;;;;;4.23;3.80;;;-40.00;99.90;;;;;;5064226;28;20168;-70
2022/07/11 08:55:30;;;;;;;5.90;3.83;;;-40.00;99.90;;;;;;5064958;28;20179;-71
2022/07/11 08:57:57;;;;;;;5.33;3.67;;;-40.00;99.90;;;;;;5065066;28;20182;-67
2022/07/11 09:00:23;;;;;;;5.47;3.73;;;-40.00;99.90;;;;;;5065756;28;20172;-70
2022/07/11 09:02:49;;;;;;;3.93;2.90;;;-40.00;99.90;;;;;;5063790;28;20168;-71
2022/07/11 09:05:15;;;;;;;4.03;2.87;;;-40.00;99.90;;;;;;5069230;28;20471;-68
2022/07/11 09:07:46;;;;;;;3.40;3.10;;;-40.00;99.90;;;;;;5065842;28;20262;-68
2022/07/11 09:10:14;;;;;;;4.57;3.70;;;-40.00;99.90;;;;;;5065986;28;20203;-69
2022/07/11 09:12:59;;;;;;;3.77;3.00;;;-40.00;99.90;;;;;;5064978;28;20265;-68
2022/07/11 09:15:38;;;;;;;3.70;3.30;;;-40.00;99.60;;;;;;5066158;28;20490;-68
2022/07/11 09:18:26;;;;;;;3.07;2.87;;;-40.00;99.90;;;;;;5066027;28;20192;-68
2022/07/11 09:26:33;;;;;;;7.63;4.47;;;-40.00;98.90;;;;;;5065897;28;20253;-69
2022/07/11 09:29:04;;;;;;;4.10;2.83;;;-40.00;99.30;;;;;;5066918;28;20173;-72
2022/07/11 09:31:32;;;;;;;4.30;3.93;;;-40.00;99.00;;;;;;5063337;28;20266;-67
2022/07/11 09:34:00;;;;;;;4.27;3.43;;;-40.00;98.80;;;;;;5065415;28;20640;-68
2022/07/11 09:36:40;;;;;;;8.37;3.47;;;-40.00;98.40;;;;;;5064494;28;20190;-67
2022/07/11 09:39:09;;;;;;;5.53;3.33;;;-40.00;99.50;;;;;;5081038;28;20592;-69
2022/07/11 09:41:36;;;;;;;3.10;2.90;;;-40.00;99.00;;;;;;5065125;28;20180;-68
2022/07/11 09:44:33;;;;;;;3.83;2.87;;;-40.00;98.30;;;;;;5064503;28;20591;-69
2022/07/11 09:46:59;;;;;;;2.90;2.63;;;-40.00;98.50;;;;;;5064252;28;20218;-69
2022/07/11 09:49:34;;;;;;;3.37;3.07;;;-40.00;97.90;;;;;;5064179;28;20197;-69
2022/07/11 09:52:13;;;;;;;3.40;2.90;;;-40.00;99.50;;;;;;5064784;28;20194;-68
2022/07/11 09:55:12;;;;;;;3.63;2.93;;;-40.00;97.20;;;;;;5065271;28;20186;-68
2022/07/11 09:57:39;;;;;;;4.80;2.63;;;-40.00;97.40;;;;;;5029366;28;20587;-70
2022/07/11 10:00:12;;;;;;;3.10;2.67;;;-40.00;97.00;;;;;;5064625;28;20286;-69
2022/07/11 10:02:41;;;;;;;5.97;3.47;;;-40.00;96.90;;;;;;5064865;28;20222;-69
2022/07/11 10:05:07;;;;;;;4.40;4.03;;;-40.00;97.20;;;;;;5060764;28;20450;-73
2022/07/11 10:07:33;;;;;;;2.67;2.53;;;-40.00;96.50;;;;;;5065153;28;20235;-69
2022/07/11 10:10:00;;;;;;;7.73;3.33;;;-40.00;95.90;;;;;;5064110;28;20237;-70
2022/07/11 10:12:29;;;;;;;4.37;3.07;;;-40.00;95.00;;;;;;5064787;28;20168;-75
2022/07/11 10:14:57;;;;;;;4.93;3.43;;;-40.00;94.70;;;;;;5066465;28;20172;-73
2022/07/11 10:17:40;;;;;;;3.63;3.33;;;-40.00;93.80;;;;;;5070646;28;20213;-73
2022/07/11 10:20:30;;;;;;;2.70;2.60;;;-40.00;95.10;;;;;;5068691;28;20209;-76
2022/07/11 10:23:11;;;;;;;3.33;3.13;;;-40.00;95.00;;;;;;5067019;28;20571;-79
2022/07/11 10:26:10;;;;;;;3.00;2.70;;;-40.00;94.70;;;;;;5066651;28;20202;-74
2022/07/11 10:28:56;;;;;;;2.97;2.50;;;-40.00;93.10;;;;;;5068787;28;20178;-73
2022/07/11 10:31:24;;;;;;;3.07;2.77;;;-40.00;92.80;;;;;;5067354;28;20214;-75
2022/07/11 10:34:04;;;;;;;3.73;3.43;;;-40.00;93.30;;;;;;5065566;28;20179;-76
2022/07/11 10:36:32;;;;;;;4.60;3.23;;;-40.00;93.50;;;;;;5068448;28;20258;-69
2022/07/11 10:39:17;;;;;;;2.80;2.60;;;-40.00;93.20;;;;;;5066929;28;20215;-69
2022/07/11 10:41:47;;;;;;;3.90;3.10;;;-40.00;93.60;;;;;;5067550;28;20176;-68
2022/07/11 10:44:13;;;;;;;4.83;2.60;;;-40.00;91.20;;;;;;5066846;28;20259;-69
2022/07/11 10:46:38;;;;;;;3.47;3.27;;;-40.00;91.90;;;;;;5068388;28;20282;-69
2022/07/11 10:49:17;;;;;;;2.37;2.17;;;-40.00;92.00;;;;;;5067043;28;20172;-68
2022/07/11 10:51:57;;;;;;;3.07;2.87;;;-40.00;91.00;;;;;;5066283;28;20176;-69
2022/07/11 10:54:29;;;;;;;3.47;3.17;;;-40.00;88.60;;;;;;5066905;28;20172;-69
2022/07/11 10:57:16;;;;;;;3.10;2.90;;;-40.00;90.90;;;;;;5066581;28;20192;-68
2022/07/11 11:00:08;;;;;;;4.40;3.13;;;-40.00;90.50;;;;;;5066772;28;20183;-69
2022/07/11 11:02:59;;;;;;;3.60;3.30;;;-40.00;87.60;;;;;;5067380;28;20259;-69
2022/07/11 11:05:52;;;;;;;3.03;2.83;;;-40.00;86.10;;;;;;5066828;28;20255;-69
2022/07/11 11:08:42;;;;;;;3.27;3.07;;;-40.00;86.80;;;;;;5067281;28;20596;-69
2022/07/11 11:11:23;;;;;;;7.83;3.93;;;-40.00;89.20;;;;;;5085406;28;20595;-69
2022/07/11 11:14:26;;;;;;;5.37;4.87;;;-40.00;90.00;;;;;;5067794;28;20473;-69
2022/07/11 11:16:52;;;;;;;5.27;4.67;;;-40.00;86.50;;;;;;5067823;28;20576;-69
2022/07/11 11:19:48;;;;;;;2.80;2.63;;;-40.00;88.80;;;;;;5065773;28;20178;-68
2022/07/11 11:22:19;;;;;;;2.20;2.10;;;-40.00;90.20;;;;;;5067167;28;20199;-68
2022/07/11 11:24:46;;;;;;;8.53;7.70;;;-40.00;88.70;;;;;;5063376;28;20188;-67
2022/07/11 11:27:21;;;;;;;2.97;2.77;;;25.90;99.90;;;;;;5065047;28;20645;-67
2022/07/11 11:29:51;;;;;;;2.87;2.67;;;26.10;99.90;;;;;;5068271;28;20174;-68
2022/07/11 11:32:18;;;;;;;3.50;3.27;;;26.50;99.90;;;;;;5068595;28;20176;-69
2022/07/11 11:34:44;;;;;;;2.50;2.30;;;26.40;99.90;;;;;;5066266;28;20222;-68
2022/07/11 11:37:10;;;;;;;3.03;2.83;;;26.40;99.90;;;;;;5066362;28;20171;-67
2022/07/11 11:39:43;;;;;;;3.73;3.53;;;26.10;99.90;;;;;;5067162;28;20234;-69
2022/07/11 11:42:17;;;;;;;4.17;3.10;;;-40.00;80.00;;;;;;5066424;28;20175;-67
2022/07/11 11:44:50;;;;;;;4.50;4.17;;;-40.00;78.00;;;;;;5067683;28;20204;-66
2022/07/11 11:47:16;;;;;;;3.67;3.40;;;-40.00;76.80;;;;;;5067696;28;20291;-68
2022/07/11 11:49:43;;;;;;;3.30;3.10;;;-40.00;76.40;;;;;;5065448;28;20244;-67
2022/07/11 11:52:10;;;;;;;4.27;3.87;;;-40.00;75.60;;;;;;5066041;28;20255;-68
2022/07/11 11:54:39;;;;;;;4.50;3.33;;;-40.00;75.40;;;;;;5066095;28;20630;-70
2022/07/11 11:57:11;;;;;;;4.37;4.17;;;-40.00;73.40;;;;;;5064787;28;20175;-68
2022/07/11 11:59:38;;;;;;;5.23;3.37;;;-40.00;77.90;;;;;;5067978;28;20176;-69
2022/07/11 12:02:04;;;;;;;2.83;2.67;;;-40.00;76.40;;;;;;5065005;28;20172;-68
2022/07/11 12:04:35;;;;;;;3.30;3.10;;;-40.00;67.50;;;;;;5066369;28;20175;-70
2022/07/11 12:07:02;;;;;;;4.23;3.93;;;-40.00;69.60;;;;;;5065767;28;20614;-69
2022/07/11 12:09:48;;;;;;;4.72;4.43;;;-40.00;66.10;;;;;;5065692;28;20263;-68
2022/07/11 12:15:06;;;;;;;5.60;4.80;;;-40.00;62.80;;;;;;5067766;28;20217;-68
2022/07/11 12:17:32;;;;;;;5.20;4.82;;;-40.00;64.70;;;;;;5066346;28;20229;-75
2022/07/11 12:19:58;;;;;;;5.60;5.22;;;-40.00;68.10;;;;;;5066696;28;20254;-70
2022/07/11 12:22:25;;;;;;;5.25;4.82;;;-40.00;68.70;;;;;;5067210;28;20250;-69
2022/07/11 12:24:52;;;;;;;6.72;4.95;;;-40.00;66.70;;;;;;5066993;28;20241;-70
2022/07/11 12:27:23;;;;;;;4.85;4.45;;;-40.00;59.40;;;;;;5064828;28;20203;-68
2022/07/11 12:29:51;;;;;;;5.20;4.80;;;-40.00;58.00;;;;;;5063670;28;20171;-68
2022/07/11 12:32:22;;;;;;;4.88;4.57;;;-40.00;55.90;;;;;;5064619;28;20179;-68
2022/07/11 12:34:49;;;;;;;5.65;5.22;;;-40.00;53.50;;;;;;5060312;28;20175;-69
2022/07/11 12:37:19;;;;;;;5.78;5.47;;;-40.00;50.80;;;;;;5070843;28;20270;-71
2022/07/11 12:39:54;;;;;;;6.75;6.15;;;-40.00;53.20;;;;;;5068401;28;20210;-68
2022/07/11 12:42:26;;;;;;;5.05;4.65;;;-40.00;52.50;;;;;;5065064;28;20463;-70
2022/07/11 12:45:08;;;;;;;5.65;5.15;;;-40.00;54.10;;;;;;5064812;28;20168;-69
2022/07/11 12:47:40;;;;;;;4.80;4.60;;;-38.90;52.80;;;;;;5065976;28;20203;-73
2022/07/11 12:50:19;;;;;;;4.82;4.50;;;-40.00;49.80;;;;;;5068003;28;20198;-72
2022/07/11 12:52:47;;;;;;;5.05;4.65;;;-40.00;51.30;;;;;;5065065;28;20164;-73